Terminal Aerodrome Forecast
Issued by NWS Duluth, MN

Home | Current Version | Previous Version | Text Only | Print | Product List | Glossary On
Versions: 1 2 3 4 5 6 7 8 9 10 11 12 13 14 15 16 17 18 19 20 21 22 23 24
164
FTUS43 KDLH 221740
TAFDLH
TAF
KDLH 221740Z 2218/2318 28010KT P6SM VCSH SCT014 BKN021 OVC027
     FM222100 29008KT P6SM VCSH OVC050
     FM230600 VRB03KT P6SM VCSH BKN035
     FM230800 VRB03KT P6SM VCSH BKN020
     FM231100 35004KT P6SM VCSH BKN008
     FM231400 04006KT P6SM VCSH OVC015=

USA.gov is the U.S. government's official web portal to all federal, state and local government web resources and services.